sensor_id;sensor_type;location;lat;lon;timestamp;P1;durP1;ratioP1;P2;durP2;ratioP2
1703;SDS011;849;48.780;9.216;2023-07-30T00:00:06;47.93;;;3.40;;
1703;SDS011;849;48.780;9.216;2023-07-30T00:02:37;47.80;;;3.77;;
1703;SDS011;849;48.780;9.216;2023-07-30T00:05:08;47.60;;;3.37;;
1703;SDS011;849;48.780;9.216;2023-07-30T00:07:39;47.90;;;3.40;;
1703;SDS011;849;48.780;9.216;2023-07-30T00:10:10;47.90;;;3.30;;
1703;SDS011;849;48.780;9.216;2023-07-30T00:12:41;48.10;;;3.90;;
1703;SDS011;849;48.780;9.216;2023-07-30T00:15:15;48.00;;;3.60;;
1703;SDS011;849;48.780;9.216;2023-07-30T00:17:46;47.90;;;3.20;;
1703;SDS011;849;48.780;9.216;2023-07-30T00:20:16;47.70;;;3.40;;
1703;SDS011;849;48.780;9.216;2023-07-30T00:22:47;47.97;;;3.60;;
1703;SDS011;849;48.780;9.216;2023-07-30T00:25:18;47.70;;;3.23;;
1703;SDS011;849;48.780;9.216;2023-07-30T00:27:48;47.90;;;3.37;;
1703;SDS011;849;48.780;9.216;2023-07-30T00:30:19;47.53;;;3.40;;
1703;SDS011;849;48.780;9.216;2023-07-30T00:32:50;47.80;;;3.30;;
1703;SDS011;849;48.780;9.216;2023-07-30T00:35:21;47.20;;;3.30;;
1703;SDS011;849;48.780;9.216;2023-07-30T00:37:52;48.03;;;3.23;;
1703;SDS011;849;48.780;9.216;2023-07-30T00:40:23;47.80;;;3.40;;
1703;SDS011;849;48.780;9.216;2023-07-30T00:42:53;47.63;;;3.40;;
1703;SDS011;849;48.780;9.216;2023-07-30T00:45:24;47.70;;;3.03;;
1703;SDS011;849;48.780;9.216;2023-07-30T00:47:55;47.57;;;3.30;;
1703;SDS011;849;48.780;9.216;2023-07-30T00:50:26;47.90;;;3.33;;
1703;SDS011;849;48.780;9.216;2023-07-30T00:52:57;47.50;;;3.20;;
1703;SDS011;849;48.780;9.216;2023-07-30T00:55:28;47.67;;;3.20;;
1703;SDS011;849;48.780;9.216;2023-07-30T00:57:58;48.10;;;3.37;;
1703;SDS011;849;48.780;9.216;2023-07-30T01:00:30;47.27;;;3.30;;
1703;SDS011;849;48.780;9.216;2023-07-30T01:03:02;47.90;;;3.50;;
1703;SDS011;849;48.780;9.216;2023-07-30T01:05:33;47.90;;;3.30;;
1703;SDS011;849;48.780;9.216;2023-07-30T01:08:04;48.10;;;3.63;;
1703;SDS011;849;48.780;9.216;2023-07-30T01:10:35;47.80;;;3.17;;
1703;SDS011;849;48.780;9.216;2023-07-30T01:13:07;47.30;;;3.17;;
1703;SDS011;849;48.780;9.216;2023-07-30T01:15:39;48.00;;;3.30;;
1703;SDS011;849;48.780;9.216;2023-07-30T01:18:11;48.00;;;3.20;;
1703;SDS011;849;48.780;9.216;2023-07-30T01:20:42;48.10;;;3.50;;
1703;SDS011;849;48.780;9.216;2023-07-30T01:23:12;48.10;;;3.30;;
1703;SDS011;849;48.780;9.216;2023-07-30T01:25:43;47.70;;;3.20;;
1703;SDS011;849;48.780;9.216;2023-07-30T01:28:16;47.70;;;3.40;;
1703;SDS011;849;48.780;9.216;2023-07-30T01:30:48;48.00;;;3.70;;
1703;SDS011;849;48.780;9.216;2023-07-30T01:33:19;47.20;;;3.40;;
1703;SDS011;849;48.780;9.216;2023-07-30T01:35:51;48.17;;;3.30;;
1703;SDS011;849;48.780;9.216;2023-07-30T01:38:23;47.37;;;3.33;;
1703;SDS011;849;48.780;9.216;2023-07-30T01:40:55;48.00;;;3.40;;
1703;SDS011;849;48.780;9.216;2023-07-30T01:43:26;47.80;;;3.70;;
1703;SDS011;849;48.780;9.216;2023-07-30T01:45:57;47.90;;;3.40;;
1703;SDS011;849;48.780;9.216;2023-07-30T01:48:28;47.47;;;3.30;;
1703;SDS011;849;48.780;9.216;2023-07-30T01:50:58;48.10;;;3.30;;
1703;SDS011;849;48.780;9.216;2023-07-30T01:53:29;48.10;;;4.23;;
1703;SDS011;849;48.780;9.216;2023-07-30T01:56:00;47.87;;;3.23;;
1703;SDS011;849;48.780;9.216;2023-07-30T01:58:31;48.20;;;3.60;;
1703;SDS011;849;48.780;9.216;2023-07-30T02:01:02;47.23;;;3.30;;
1703;SDS011;849;48.780;9.216;2023-07-30T02:03:28;47.90;;;3.30;;
1703;SDS011;849;48.780;9.216;2023-07-30T02:05:59;47.90;;;3.40;;
1703;SDS011;849;48.780;9.216;2023-07-30T02:08:29;48.30;;;4.30;;
1703;SDS011;849;48.780;9.216;2023-07-30T02:11:00;47.90;;;3.17;;
1703;SDS011;849;48.780;9.216;2023-07-30T02:13:31;47.90;;;3.60;;
1703;SDS011;849;48.780;9.216;2023-07-30T02:16:02;47.60;;;3.20;;
1703;SDS011;849;48.780;9.216;2023-07-30T02:18:32;47.80;;;3.40;;
1703;SDS011;849;48.780;9.216;2023-07-30T02:21:03;48.00;;;3.13;;
1703;SDS011;849;48.780;9.216;2023-07-30T02:23:34;47.90;;;3.43;;
1703;SDS011;849;48.780;9.216;2023-07-30T02:26:05;48.20;;;3.20;;
1703;SDS011;849;48.780;9.216;2023-07-30T02:28:36;47.90;;;3.97;;
1703;SDS011;849;48.780;9.216;2023-07-30T02:31:06;48.07;;;3.20;;
1703;SDS011;849;48.780;9.216;2023-07-30T02:33:37;47.70;;;3.50;;
1703;SDS011;849;48.780;9.216;2023-07-30T02:36:08;48.10;;;3.30;;
1703;SDS011;849;48.780;9.216;2023-07-30T02:38:39;48.00;;;3.40;;
1703;SDS011;849;48.780;9.216;2023-07-30T02:41:09;47.37;;;3.20;;
1703;SDS011;849;48.780;9.216;2023-07-30T02:43:36;48.10;;;3.50;;
1703;SDS011;849;48.780;9.216;2023-07-30T02:46:06;48.20;;;3.20;;
1703;SDS011;849;48.780;9.216;2023-07-30T02:48:37;48.27;;;3.70;;
1703;SDS011;849;48.780;9.216;2023-07-30T02:51:08;48.10;;;3.20;;
1703;SDS011;849;48.780;9.216;2023-07-30T02:53:39;47.37;;;3.30;;
1703;SDS011;849;48.780;9.216;2023-07-30T02:56:09;47.60;;;2.97;;
1703;SDS011;849;48.780;9.216;2023-07-30T02:58:40;47.60;;;3.20;;
1703;SDS011;849;48.780;9.216;2023-07-30T03:01:11;47.80;;;3.17;;
1703;SDS011;849;48.780;9.216;2023-07-30T03:03:42;47.60;;;3.20;;
1703;SDS011;849;48.780;9.216;2023-07-30T03:06:12;48.07;;;3.10;;
1703;SDS011;849;48.780;9.216;2023-07-30T03:08:44;47.90;;;3.20;;
1703;SDS011;849;48.780;9.216;2023-07-30T03:11:15;48.07;;;3.10;;
1703;SDS011;849;48.780;9.216;2023-07-30T03:13:45;47.70;;;3.10;;
1703;SDS011;849;48.780;9.216;2023-07-30T03:16:16;48.10;;;3.07;;
1703;SDS011;849;48.780;9.216;2023-07-30T03:18:47;48.00;;;3.20;;
1703;SDS011;849;48.780;9.216;2023-07-30T03:21:18;47.93;;;3.07;;
1703;SDS011;849;48.780;9.216;2023-07-30T03:23:44;48.00;;;3.10;;
1703;SDS011;849;48.780;9.216;2023-07-30T03:26:14;47.80;;;3.17;;
1703;SDS011;849;48.780;9.216;2023-07-30T03:28:45;48.00;;;3.33;;
1703;SDS011;849;48.780;9.216;2023-07-30T03:31:16;47.90;;;3.20;;
1703;SDS011;849;48.780;9.216;2023-07-30T03:33:47;47.67;;;3.20;;
1703;SDS011;849;48.780;9.216;2023-07-30T03:36:17;48.10;;;3.37;;
1703;SDS011;849;48.780;9.216;2023-07-30T03:38:48;47.90;;;3.40;;
1703;SDS011;849;48.780;9.216;2023-07-30T03:41:19;48.00;;;3.10;;
1703;SDS011;849;48.780;9.216;2023-07-30T03:43:50;47.90;;;3.20;;
1703;SDS011;849;48.780;9.216;2023-07-30T03:46:21;48.10;;;3.20;;
1703;SDS011;849;48.780;9.216;2023-07-30T03:48:51;48.10;;;3.10;;
1703;SDS011;849;48.780;9.216;2023-07-30T03:51:22;47.90;;;3.10;;
1703;SDS011;849;48.780;9.216;2023-07-30T03:53:54;47.70;;;3.20;;
1703;SDS011;849;48.780;9.216;2023-07-30T03:56:20;47.33;;;3.20;;
1703;SDS011;849;48.780;9.216;2023-07-30T03:58:51;48.10;;;3.20;;
1703;SDS011;849;48.780;9.216;2023-07-30T04:01:22;48.17;;;3.50;;
1703;SDS011;849;48.780;9.216;2023-07-30T04:03:53;47.97;;;3.10;;
1703;SDS011;849;48.780;9.216;2023-07-30T04:06:24;48.10;;;3.37;;
1703;SDS011;849;48.780;9.216;2023-07-30T04:08:54;47.70;;;3.10;;
1703;SDS011;849;48.780;9.216;2023-07-30T04:11:20;48.20;;;3.30;;
1703;SDS011;849;48.780;9.216;2023-07-30T04:13:51;47.83;;;3.00;;
1703;SDS011;849;48.780;9.216;2023-07-30T04:16:22;48.10;;;3.27;;
1703;SDS011;849;48.780;9.216;2023-07-30T04:18:53;47.90;;;3.30;;
1703;SDS011;849;48.780;9.216;2023-07-30T04:21:23;47.80;;;3.20;;
1703;SDS011;849;48.780;9.216;2023-07-30T04:23:54;48.00;;;3.10;;
1703;SDS011;849;48.780;9.216;2023-07-30T04:26:25;48.10;;;3.23;;
1703;SDS011;849;48.780;9.216;2023-07-30T04:28:56;48.10;;;3.30;;
1703;SDS011;849;48.780;9.216;2023-07-30T04:31:26;48.20;;;3.20;;
1703;SDS011;849;48.780;9.216;2023-07-30T04:33:57;48.37;;;3.47;;
1703;SDS011;849;48.780;9.216;2023-07-30T04:36:28;48.00;;;3.30;;
1703;SDS011;849;48.780;9.216;2023-07-30T04:38:59;47.80;;;3.30;;
1703;SDS011;849;48.780;9.216;2023-07-30T04:41:30;48.00;;;3.20;;
1703;SDS011;849;48.780;9.216;2023-07-30T04:44:00;48.00;;;3.20;;
1703;SDS011;849;48.780;9.216;2023-07-30T04:46:31;48.00;;;3.03;;
1703;SDS011;849;48.780;9.216;2023-07-30T04:49:03;48.10;;;3.30;;
1703;SDS011;849;48.780;9.216;2023-07-30T04:51:37;47.90;;;3.20;;
1703;SDS011;849;48.780;9.216;2023-07-30T04:54:08;47.97;;;3.13;;
1703;SDS011;849;48.780;9.216;2023-07-30T04:56:39;48.10;;;3.23;;
1703;SDS011;849;48.780;9.216;2023-07-30T04:59:10;48.17;;;3.27;;
1703;SDS011;849;48.780;9.216;2023-07-30T05:01:40;47.80;;;3.27;;
1703;SDS011;849;48.780;9.216;2023-07-30T05:04:11;47.80;;;3.33;;
1703;SDS011;849;48.780;9.216;2023-07-30T05:06:42;48.20;;;3.60;;
1703;SDS011;849;48.780;9.216;2023-07-30T05:09:13;48.17;;;3.20;;
1703;SDS011;849;48.780;9.216;2023-07-30T05:11:43;48.10;;;3.30;;
1703;SDS011;849;48.780;9.216;2023-07-30T05:14:14;47.90;;;3.27;;
1703;SDS011;849;48.780;9.216;2023-07-30T05:16:45;47.80;;;3.50;;
1703;SDS011;849;48.780;9.216;2023-07-30T05:19:16;48.00;;;3.17;;
1703;SDS011;849;48.780;9.216;2023-07-30T05:21:47;48.00;;;3.30;;
1703;SDS011;849;48.780;9.216;2023-07-30T05:24:17;48.00;;;3.00;;
1703;SDS011;849;48.780;9.216;2023-07-30T05:26:48;47.70;;;3.40;;
1703;SDS011;849;48.780;9.216;2023-07-30T05:29:14;48.10;;;3.20;;
1703;SDS011;849;48.780;9.216;2023-07-30T05:31:45;48.10;;;3.10;;
1703;SDS011;849;48.780;9.216;2023-07-30T05:34:16;48.10;;;3.30;;
1703;SDS011;849;48.780;9.216;2023-07-30T05:36:46;48.20;;;4.00;;
1703;SDS011;849;48.780;9.216;2023-07-30T05:39:17;48.10;;;3.37;;
1703;SDS011;849;48.780;9.216;2023-07-30T05:41:48;48.00;;;3.20;;
1703;SDS011;849;48.780;9.216;2023-07-30T05:44:19;48.17;;;3.40;;
1703;SDS011;849;48.780;9.216;2023-07-30T05:46:49;48.27;;;3.40;;
1703;SDS011;849;48.780;9.216;2023-07-30T05:49:20;48.27;;;3.30;;
1703;SDS011;849;48.780;9.216;2023-07-30T05:51:51;48.00;;;3.40;;
1703;SDS011;849;48.780;9.216;2023-07-30T05:54:22;48.10;;;3.50;;
1703;SDS011;849;48.780;9.216;2023-07-30T05:56:52;48.17;;;3.30;;
1703;SDS011;849;48.780;9.216;2023-07-30T05:59:23;48.03;;;3.30;;
1703;SDS011;849;48.780;9.216;2023-07-30T06:01:49;48.00;;;3.47;;
1703;SDS011;849;48.780;9.216;2023-07-30T06:04:20;48.40;;;3.90;;
1703;SDS011;849;48.780;9.216;2023-07-30T06:06:51;48.10;;;3.77;;
1703;SDS011;849;48.780;9.216;2023-07-30T06:09:21;48.10;;;3.70;;
1703;SDS011;849;48.780;9.216;2023-07-30T06:11:52;47.70;;;3.53;;
1703;SDS011;849;48.780;9.216;2023-07-30T06:14:23;48.23;;;3.60;;
1703;SDS011;849;48.780;9.216;2023-07-30T06:16:54;47.77;;;3.57;;
1703;SDS011;849;48.780;9.216;2023-07-30T06:19:25;48.00;;;3.50;;
1703;SDS011;849;48.780;9.216;2023-07-30T06:21:56;48.37;;;4.10;;
1703;SDS011;849;48.780;9.216;2023-07-30T06:24:27;47.60;;;3.53;;
1703;SDS011;849;48.780;9.216;2023-07-30T06:26:58;48.30;;;3.50;;
1703;SDS011;849;48.780;9.216;2023-07-30T06:29:29;48.30;;;3.40;;
1703;SDS011;849;48.780;9.216;2023-07-30T06:31:59;48.00;;;3.60;;
1703;SDS011;849;48.780;9.216;2023-07-30T06:34:30;48.00;;;3.50;;
1703;SDS011;849;48.780;9.216;2023-07-30T06:37:01;48.03;;;3.57;;
1703;SDS011;849;48.780;9.216;2023-07-30T06:39:32;48.33;;;3.60;;
1703;SDS011;849;48.780;9.216;2023-07-30T06:42:03;47.67;;;3.30;;
1703;SDS011;849;48.780;9.216;2023-07-30T06:44:33;48.20;;;3.40;;
1703;SDS011;849;48.780;9.216;2023-07-30T06:47:04;47.70;;;3.20;;
1703;SDS011;849;48.780;9.216;2023-07-30T06:49:36;47.90;;;3.27;;
1703;SDS011;849;48.780;9.216;2023-07-30T06:52:07;47.40;;;3.30;;
1703;SDS011;849;48.780;9.216;2023-07-30T06:54:38;47.90;;;3.43;;
1703;SDS011;849;48.780;9.216;2023-07-30T06:57:08;47.40;;;3.20;;
1703;SDS011;849;48.780;9.216;2023-07-30T06:59:39;47.80;;;3.30;;
1703;SDS011;849;48.780;9.216;2023-07-30T07:02:10;47.97;;;3.50;;
1703;SDS011;849;48.780;9.216;2023-07-30T07:04:41;47.57;;;3.30;;
1703;SDS011;849;48.780;9.216;2023-07-30T07:07:11;47.80;;;3.37;;
1703;SDS011;849;48.780;9.216;2023-07-30T07:09:42;47.70;;;3.33;;
1703;SDS011;849;48.780;9.216;2023-07-30T07:12:13;47.70;;;3.30;;
1703;SDS011;849;48.780;9.216;2023-07-30T07:14:44;48.07;;;3.40;;
1703;SDS011;849;48.780;9.216;2023-07-30T07:17:14;47.70;;;3.30;;
1703;SDS011;849;48.780;9.216;2023-07-30T07:19:45;47.80;;;3.43;;
1703;SDS011;849;48.780;9.216;2023-07-30T07:22:16;47.40;;;3.40;;
1703;SDS011;849;48.780;9.216;2023-07-30T07:24:47;47.70;;;3.40;;
1703;SDS011;849;48.780;9.216;2023-07-30T07:27:19;48.10;;;3.77;;
1703;SDS011;849;48.780;9.216;2023-07-30T07:29:50;48.30;;;3.90;;
1703;SDS011;849;48.780;9.216;2023-07-30T07:32:21;48.10;;;3.40;;
1703;SDS011;849;48.780;9.216;2023-07-30T07:34:52;48.17;;;3.60;;
1703;SDS011;849;48.780;9.216;2023-07-30T07:37:23;47.90;;;3.50;;
1703;SDS011;849;48.780;9.216;2023-07-30T07:39:53;47.57;;;3.40;;
1703;SDS011;849;48.780;9.216;2023-07-30T07:42:24;47.70;;;3.30;;
1703;SDS011;849;48.780;9.216;2023-07-30T07:44:55;47.70;;;3.30;;
1703;SDS011;849;48.780;9.216;2023-07-30T07:47:26;48.17;;;3.40;;
1703;SDS011;849;48.780;9.216;2023-07-30T07:49:57;47.43;;;3.53;;
1703;SDS011;849;48.780;9.216;2023-07-30T07:52:28;47.70;;;3.50;;
1703;SDS011;849;48.780;9.216;2023-07-30T07:54:59;47.90;;;3.40;;
1703;SDS011;849;48.780;9.216;2023-07-30T07:57:29;47.60;;;3.50;;
1703;SDS011;849;48.780;9.216;2023-07-30T08:00:00;47.70;;;3.80;;
1703;SDS011;849;48.780;9.216;2023-07-30T08:02:31;47.80;;;3.60;;
1703;SDS011;849;48.780;9.216;2023-07-30T08:05:02;47.57;;;3.60;;
1703;SDS011;849;48.780;9.216;2023-07-30T08:07:33;47.80;;;3.80;;
1703;SDS011;849;48.780;9.216;2023-07-30T08:10:04;48.20;;;3.80;;
1703;SDS011;849;48.780;9.216;2023-07-30T08:12:36;48.17;;;3.57;;
1703;SDS011;849;48.780;9.216;2023-07-30T08:15:07;48.10;;;3.60;;
1703;SDS011;849;48.780;9.216;2023-07-30T08:17:38;47.53;;;3.53;;
1703;SDS011;849;48.780;9.216;2023-07-30T08:20:08;48.17;;;3.60;;
1703;SDS011;849;48.780;9.216;2023-07-30T08:22:39;47.30;;;3.53;;
1703;SDS011;849;48.780;9.216;2023-07-30T08:25:10;48.17;;;3.30;;
1703;SDS011;849;48.780;9.216;2023-07-30T08:27:41;47.70;;;3.90;;
1703;SDS011;849;48.780;9.216;2023-07-30T08:30:12;47.73;;;3.80;;
1703;SDS011;849;48.780;9.216;2023-07-30T08:32:43;48.10;;;3.60;;
1703;SDS011;849;48.780;9.216;2023-07-30T08:35:14;47.70;;;3.80;;
1703;SDS011;849;48.780;9.216;2023-07-30T08:37:45;47.50;;;3.43;;
1703;SDS011;849;48.780;9.216;2023-07-30T08:40:15;47.70;;;3.40;;
1703;SDS011;849;48.780;9.216;2023-07-30T08:42:46;47.50;;;3.63;;
1703;SDS011;849;48.780;9.216;2023-07-30T08:45:17;47.57;;;3.60;;
1703;SDS011;849;48.780;9.216;2023-07-30T08:47:48;47.67;;;4.03;;
1703;SDS011;849;48.780;9.216;2023-07-30T08:50:19;47.47;;;4.80;;
1703;SDS011;849;48.780;9.216;2023-07-30T08:52:50;47.90;;;5.20;;
1703;SDS011;849;48.780;9.216;2023-07-30T08:55:17;47.33;;;3.10;;
1703;SDS011;849;48.780;9.216;2023-07-30T08:57:44;47.40;;;2.93;;
1703;SDS011;849;48.780;9.216;2023-07-30T09:00:11;47.40;;;3.00;;
1703;SDS011;849;48.780;9.216;2023-07-30T09:02:47;47.60;;;3.30;;
1703;SDS011;849;48.780;9.216;2023-07-30T09:05:21;47.93;;;3.10;;
1703;SDS011;849;48.780;9.216;2023-07-30T09:07:48;47.17;;;3.13;;
1703;SDS011;849;48.780;9.216;2023-07-30T09:10:19;47.47;;;3.00;;
1703;SDS011;849;48.780;9.216;2023-07-30T09:12:54;47.20;;;3.40;;
1703;SDS011;849;48.780;9.216;2023-07-30T09:15:31;48.00;;;3.40;;
1703;SDS011;849;48.780;9.216;2023-07-30T09:18:09;47.63;;;3.20;;
1703;SDS011;849;48.780;9.216;2023-07-30T09:20:41;47.60;;;3.30;;
1703;SDS011;849;48.780;9.216;2023-07-30T09:23:12;47.80;;;3.23;;
1703;SDS011;849;48.780;9.216;2023-07-30T09:25:38;47.57;;;3.40;;
1703;SDS011;849;48.780;9.216;2023-07-30T09:28:05;47.40;;;3.30;;
1703;SDS011;849;48.780;9.216;2023-07-30T09:30:32;47.77;;;3.30;;
1703;SDS011;849;48.780;9.216;2023-07-30T09:33:03;47.77;;;3.50;;
1703;SDS011;849;48.780;9.216;2023-07-30T09:35:34;47.60;;;3.03;;
1703;SDS011;849;48.780;9.216;2023-07-30T09:38:05;47.60;;;3.03;;
1703;SDS011;849;48.780;9.216;2023-07-30T09:40:36;47.80;;;3.27;;
1703;SDS011;849;48.780;9.216;2023-07-30T09:43:08;47.80;;;3.40;;
1703;SDS011;849;48.780;9.216;2023-07-30T09:45:39;47.53;;;3.20;;
1703;SDS011;849;48.780;9.216;2023-07-30T09:48:10;47.50;;;3.20;;
1703;SDS011;849;48.780;9.216;2023-07-30T09:50:41;47.97;;;4.03;;
1703;SDS011;849;48.780;9.216;2023-07-30T09:53:13;47.30;;;2.97;;
1703;SDS011;849;48.780;9.216;2023-07-30T09:55:45;47.40;;;3.10;;
1703;SDS011;849;48.780;9.216;2023-07-30T09:58:16;47.50;;;2.87;;
1703;SDS011;849;48.780;9.216;2023-07-30T10:00:48;48.57;;;8.17;;
1703;SDS011;849;48.780;9.216;2023-07-30T10:03:20;47.60;;;5.57;;
1703;SDS011;849;48.780;9.216;2023-07-30T10:05:51;47.50;;;3.20;;
1703;SDS011;849;48.780;9.216;2023-07-30T10:08:25;47.27;;;3.00;;
1703;SDS011;849;48.780;9.216;2023-07-30T10:10:57;47.70;;;3.13;;
1703;SDS011;849;48.780;9.216;2023-07-30T10:13:30;47.50;;;3.30;;
1703;SDS011;849;48.780;9.216;2023-07-30T10:16:02;47.07;;;2.90;;
1703;SDS011;849;48.780;9.216;2023-07-30T10:18:33;47.30;;;2.93;;
1703;SDS011;849;48.780;9.216;2023-07-30T10:21:21;47.07;;;3.00;;
1703;SDS011;849;48.780;9.216;2023-07-30T10:24:02;47.60;;;2.83;;
1703;SDS011;849;48.780;9.216;2023-07-30T10:26:33;47.10;;;3.20;;
1703;SDS011;849;48.780;9.216;2023-07-30T10:29:23;47.70;;;3.03;;
1703;SDS011;849;48.780;9.216;2023-07-30T10:31:53;47.07;;;2.93;;
1703;SDS011;849;48.780;9.216;2023-07-30T10:34:26;47.67;;;3.20;;
1703;SDS011;849;48.780;9.216;2023-07-30T10:37:22;47.40;;;2.80;;
1703;SDS011;849;48.780;9.216;2023-07-30T10:39:54;47.40;;;3.10;;
1703;SDS011;849;48.780;9.216;2023-07-30T10:42:34;47.17;;;3.37;;
1703;SDS011;849;48.780;9.216;2023-07-30T10:45:06;47.10;;;3.00;;
1703;SDS011;849;48.780;9.216;2023-07-30T10:47:37;46.77;;;2.83;;
1703;SDS011;849;48.780;9.216;2023-07-30T10:50:11;46.97;;;3.10;;
1703;SDS011;849;48.780;9.216;2023-07-30T10:52:43;46.77;;;3.60;;
1703;SDS011;849;48.780;9.216;2023-07-30T10:55:15;47.47;;;3.30;;
1703;SDS011;849;48.780;9.216;2023-07-30T10:57:45;47.20;;;3.30;;
1703;SDS011;849;48.780;9.216;2023-07-30T11:00:18;47.00;;;3.37;;
1703;SDS011;849;48.780;9.216;2023-07-30T11:02:53;47.33;;;3.30;;
1703;SDS011;849;48.780;9.216;2023-07-30T11:05:24;47.40;;;3.30;;
1703;SDS011;849;48.780;9.216;2023-07-30T11:07:55;47.70;;;3.40;;
1703;SDS011;849;48.780;9.216;2023-07-30T11:10:26;47.00;;;3.27;;
1703;SDS011;849;48.780;9.216;2023-07-30T11:12:57;47.60;;;3.33;;
1703;SDS011;849;48.780;9.216;2023-07-30T11:15:28;47.43;;;3.23;;
1703;SDS011;849;48.780;9.216;2023-07-30T11:17:59;46.80;;;2.97;;
1703;SDS011;849;48.780;9.216;2023-07-30T11:20:29;46.97;;;3.10;;
1703;SDS011;849;48.780;9.216;2023-07-30T11:23:00;47.47;;;3.30;;
1703;SDS011;849;48.780;9.216;2023-07-30T11:25:31;47.20;;;3.10;;
1703;SDS011;849;48.780;9.216;2023-07-30T11:28:02;47.23;;;3.30;;
1703;SDS011;849;48.780;9.216;2023-07-30T11:30:32;47.20;;;2.90;;
1703;SDS011;849;48.780;9.216;2023-07-30T11:33:03;47.10;;;2.97;;
1703;SDS011;849;48.780;9.216;2023-07-30T11:35:34;47.23;;;3.20;;
1703;SDS011;849;48.780;9.216;2023-07-30T11:38:05;47.60;;;3.30;;
1703;SDS011;849;48.780;9.216;2023-07-30T11:40:37;47.60;;;3.30;;
1703;SDS011;849;48.780;9.216;2023-07-30T11:43:09;47.47;;;3.27;;
1703;SDS011;849;48.780;9.216;2023-07-30T11:45:39;47.00;;;3.20;;
1703;SDS011;849;48.780;9.216;2023-07-30T11:48:10;47.20;;;3.03;;
1703;SDS011;849;48.780;9.216;2023-07-30T11:50:45;47.20;;;3.40;;
1703;SDS011;849;48.780;9.216;2023-07-30T11:53:17;47.00;;;3.10;;
1703;SDS011;849;48.780;9.216;2023-07-30T11:55:49;47.30;;;3.20;;
1703;SDS011;849;48.780;9.216;2023-07-30T11:58:19;47.50;;;3.30;;
1703;SDS011;849;48.780;9.216;2023-07-30T12:00:50;47.40;;;3.40;;
1703;SDS011;849;48.780;9.216;2023-07-30T12:03:22;46.87;;;3.00;;
1703;SDS011;849;48.780;9.216;2023-07-30T12:05:53;46.80;;;3.00;;
1703;SDS011;849;48.780;9.216;2023-07-30T12:08:25;47.60;;;4.83;;
1703;SDS011;849;48.780;9.216;2023-07-30T12:11:01;48.03;;;4.93;;
1703;SDS011;849;48.780;9.216;2023-07-30T12:13:34;47.20;;;2.93;;
1703;SDS011;849;48.780;9.216;2023-07-30T12:16:13;47.50;;;3.30;;
1703;SDS011;849;48.780;9.216;2023-07-30T12:18:44;47.07;;;3.40;;
1703;SDS011;849;48.780;9.216;2023-07-30T12:21:15;47.60;;;3.00;;
1703;SDS011;849;48.780;9.216;2023-07-30T12:23:46;47.50;;;3.87;;
1703;SDS011;849;48.780;9.216;2023-07-30T12:26:17;47.50;;;3.77;;
1703;SDS011;849;48.780;9.216;2023-07-30T12:28:48;47.27;;;4.00;;
1703;SDS011;849;48.780;9.216;2023-07-30T12:31:19;47.07;;;3.40;;
1703;SDS011;849;48.780;9.216;2023-07-30T12:33:50;46.57;;;3.07;;
1703;SDS011;849;48.780;9.216;2023-07-30T12:36:20;47.30;;;3.10;;
1703;SDS011;849;48.780;9.216;2023-07-30T12:38:53;47.30;;;3.17;;
1703;SDS011;849;48.780;9.216;2023-07-30T12:41:24;47.20;;;2.93;;
1703;SDS011;849;48.780;9.216;2023-07-30T12:43:57;47.00;;;3.20;;
1703;SDS011;849;48.780;9.216;2023-07-30T12:46:28;47.20;;;3.00;;
1703;SDS011;849;48.780;9.216;2023-07-30T12:49:00;47.07;;;3.07;;
1703;SDS011;849;48.780;9.216;2023-07-30T12:51:34;47.50;;;3.50;;
1703;SDS011;849;48.780;9.216;2023-07-30T12:54:04;47.50;;;2.90;;
1703;SDS011;849;48.780;9.216;2023-07-30T12:56:35;47.37;;;3.20;;
1703;SDS011;849;48.780;9.216;2023-07-30T12:59:06;47.07;;;3.50;;
1703;SDS011;849;48.780;9.216;2023-07-30T13:01:37;46.90;;;3.27;;
1703;SDS011;849;48.780;9.216;2023-07-30T13:04:08;47.50;;;3.20;;
1703;SDS011;849;48.780;9.216;2023-07-30T13:06:38;47.13;;;3.47;;
1703;SDS011;849;48.780;9.216;2023-07-30T13:09:09;47.40;;;2.83;;
1703;SDS011;849;48.780;9.216;2023-07-30T13:11:40;47.40;;;3.00;;
1703;SDS011;849;48.780;9.216;2023-07-30T13:14:11;46.97;;;2.80;;
1703;SDS011;849;48.780;9.216;2023-07-30T13:16:42;47.50;;;4.70;;
1703;SDS011;849;48.780;9.216;2023-07-30T13:19:13;46.80;;;2.97;;
1703;SDS011;849;48.780;9.216;2023-07-30T13:21:43;47.20;;;2.97;;
1703;SDS011;849;48.780;9.216;2023-07-30T13:24:14;46.57;;;2.93;;
1703;SDS011;849;48.780;9.216;2023-07-30T13:26:45;47.00;;;3.27;;
1703;SDS011;849;48.780;9.216;2023-07-30T13:29:16;46.90;;;2.80;;
1703;SDS011;849;48.780;9.216;2023-07-30T13:31:46;47.00;;;3.33;;
1703;SDS011;849;48.780;9.216;2023-07-30T13:34:17;47.20;;;3.10;;
1703;SDS011;849;48.780;9.216;2023-07-30T13:36:48;47.33;;;3.63;;
1703;SDS011;849;48.780;9.216;2023-07-30T13:39:19;47.20;;;3.20;;
1703;SDS011;849;48.780;9.216;2023-07-30T13:41:50;47.20;;;2.93;;
1703;SDS011;849;48.780;9.216;2023-07-30T13:44:20;47.20;;;3.10;;
1703;SDS011;849;48.780;9.216;2023-07-30T13:46:51;47.10;;;3.20;;
1703;SDS011;849;48.780;9.216;2023-07-30T13:49:22;47.10;;;2.90;;
1703;SDS011;849;48.780;9.216;2023-07-30T13:51:53;47.00;;;2.90;;
1703;SDS011;849;48.780;9.216;2023-07-30T13:54:23;46.97;;;2.70;;
1703;SDS011;849;48.780;9.216;2023-07-30T13:56:54;47.57;;;4.03;;
1703;SDS011;849;48.780;9.216;2023-07-30T13:59:25;47.10;;;2.80;;
1703;SDS011;849;48.780;9.216;2023-07-30T14:01:56;47.27;;;2.70;;
1703;SDS011;849;48.780;9.216;2023-07-30T14:04:27;47.30;;;3.10;;
1703;SDS011;849;48.780;9.216;2023-07-30T14:06:57;46.90;;;2.90;;
1703;SDS011;849;48.780;9.216;2023-07-30T14:09:28;47.00;;;2.90;;
1703;SDS011;849;48.780;9.216;2023-07-30T14:12:03;47.37;;;3.00;;
1703;SDS011;849;48.780;9.216;2023-07-30T14:14:34;47.10;;;3.10;;
1703;SDS011;849;48.780;9.216;2023-07-30T14:17:05;46.90;;;3.10;;
1703;SDS011;849;48.780;9.216;2023-07-30T14:19:37;47.30;;;3.20;;
1703;SDS011;849;48.780;9.216;2023-07-30T14:22:07;47.30;;;3.17;;
1703;SDS011;849;48.780;9.216;2023-07-30T14:24:38;47.10;;;3.50;;
1703;SDS011;849;48.780;9.216;2023-07-30T14:27:10;47.30;;;3.60;;
1703;SDS011;849;48.780;9.216;2023-07-30T14:29:41;47.20;;;3.00;;
1703;SDS011;849;48.780;9.216;2023-07-30T14:32:12;46.87;;;3.13;;
1703;SDS011;849;48.780;9.216;2023-07-30T14:34:42;47.20;;;3.33;;
1703;SDS011;849;48.780;9.216;2023-07-30T14:37:14;46.90;;;2.90;;
1703;SDS011;849;48.780;9.216;2023-07-30T14:39:45;47.13;;;3.10;;
1703;SDS011;849;48.780;9.216;2023-07-30T14:42:16;47.07;;;2.97;;
1703;SDS011;849;48.780;9.216;2023-07-30T14:44:46;47.30;;;3.40;;
1703;SDS011;849;48.780;9.216;2023-07-30T14:47:17;47.00;;;3.53;;
1703;SDS011;849;48.780;9.216;2023-07-30T14:49:48;47.00;;;3.10;;
1703;SDS011;849;48.780;9.216;2023-07-30T14:52:21;47.30;;;3.43;;
1703;SDS011;849;48.780;9.216;2023-07-30T14:54:52;46.70;;;3.07;;
1703;SDS011;849;48.780;9.216;2023-07-30T14:57:23;46.80;;;3.80;;
1703;SDS011;849;48.780;9.216;2023-07-30T14:59:54;46.70;;;3.40;;
1703;SDS011;849;48.780;9.216;2023-07-30T15:02:25;46.93;;;3.20;;
1703;SDS011;849;48.780;9.216;2023-07-30T15:04:58;47.00;;;3.10;;
1703;SDS011;849;48.780;9.216;2023-07-30T15:07:29;47.47;;;6.70;;
1703;SDS011;849;48.780;9.216;2023-07-30T15:09:59;47.20;;;3.60;;
1703;SDS011;849;48.780;9.216;2023-07-30T15:12:31;47.47;;;3.53;;
1703;SDS011;849;48.780;9.216;2023-07-30T15:15:02;47.10;;;3.07;;
1703;SDS011;849;48.780;9.216;2023-07-30T15:17:34;46.90;;;3.10;;
1703;SDS011;849;48.780;9.216;2023-07-30T15:20:05;46.57;;;3.17;;
1703;SDS011;849;48.780;9.216;2023-07-30T15:22:36;47.00;;;3.07;;
1703;SDS011;849;48.780;9.216;2023-07-30T15:25:07;46.97;;;2.93;;
1703;SDS011;849;48.780;9.216;2023-07-30T15:27:38;47.10;;;2.70;;
1703;SDS011;849;48.780;9.216;2023-07-30T15:30:09;47.10;;;2.90;;
1703;SDS011;849;48.780;9.216;2023-07-30T15:32:41;47.10;;;3.33;;
1703;SDS011;849;48.780;9.216;2023-07-30T15:35:13;47.27;;;3.10;;
1703;SDS011;849;48.780;9.216;2023-07-30T15:37:45;47.10;;;2.80;;